Gillisonville, South Carolina
Current Conditions -  °F | °C
As of 11:56 PM on Monday 26 Jan 2015 (Local Time) from KNBC Reporting Station
Few Clouds Few Clouds  
Wind Chill: 34°   Ceiling: Unl
Heat Index: 41°   Visibility: 10mi
Dew Point: 30°   Wind: 13mph
Humidity: 65%   Direction: 280°W
Pressure: 29.84"   Gusts: 21mph
Location:  32.4773°N, 80.9264°W
Report Text: KNBC 270456Z AUTO 28011G18KT 10SM FEW060 05/M01 A2984 RMK AO2 PK WND 29026/0409 SLP105 T00501011 401390050 $
Loading
Personal Weather Stations






























Interactive Weather Map New forecast layout! Learn more

10-Day Weather Forecast

Advertisements
Track Severe Weather on mobile